createdAt,value
2019-04-25T00:00:24.700Z,39.92
2019-04-25T00:01:03.336Z,24.07
2019-04-25T00:01:44.657Z,33.40
2019-04-25T00:02:34.478Z,20.95
2019-04-25T00:03:12.211Z,24.23
2019-04-25T00:03:48.422Z,28.98
2019-04-25T00:04:24.533Z,23.20
2019-04-25T00:05:01.335Z,30.30
2019-04-25T00:05:38.765Z,27.85
2019-04-25T00:06:15.924Z,28.85
2019-04-25T00:06:52.238Z,28.98
2019-04-25T00:07:28.639Z,26.33
2019-04-25T00:08:05.196Z,24.70
2019-04-25T00:08:43.074Z,26.55
2019-04-25T00:09:21.914Z,32.15
2019-04-25T00:09:58.087Z,31.23
2019-04-25T00:10:34.125Z,28.17
2019-04-25T00:11:11.674Z,30.30
2019-04-25T00:11:49.004Z,25.23
2019-04-25T00:12:25.127Z,22.75
2019-04-25T00:13:03.587Z,26.12
2019-04-25T00:13:39.737Z,29.57
2019-04-25T00:14:16.093Z,28.92
2019-04-25T00:14:52.210Z,27.22
2019-04-25T00:15:29.474Z,29.75
2019-04-25T00:16:06.464Z,26.48
2019-04-25T00:16:45.132Z,28.30
2019-04-25T00:17:21.502Z,24.40
2019-04-25T00:17:57.548Z,22.35
2019-04-25T00:18:33.665Z,31.50
2019-04-25T00:19:09.805Z,27.32
2019-04-25T00:19:46.438Z,29.23
2019-04-25T00:20:24.777Z,25.65
2019-04-25T00:21:02.447Z,25.72
2019-04-25T00:21:40.911Z,29.87
2019-04-25T00:22:22.332Z,28.15
2019-04-25T00:23:01.916Z,27.52
2019-04-25T00:23:39.369Z,27.32
2019-04-25T00:24:23.818Z,30.17
2019-04-25T00:25:15.099Z,27.93
2019-04-25T00:25:52.807Z,26.27
2019-04-25T00:26:33.489Z,25.68
2019-04-25T00:27:46.019Z,27.65
2019-04-25T00:28:22.320Z,27.75
2019-04-25T00:28:58.422Z,25.08
2019-04-25T00:29:34.679Z,25.92
2019-04-25T00:30:11.329Z,26.77
2019-04-25T00:30:48.067Z,25.70
2019-04-25T00:31:26.040Z,24.65
2019-04-25T00:32:02.235Z,27.30
2019-04-25T00:32:38.345Z,28.70
2019-04-25T00:33:14.472Z,28.67
2019-04-25T00:33:52.493Z,26.60
2019-04-25T00:34:28.405Z,37.08
2019-04-25T00:35:05.798Z,24.92
2019-04-25T00:35:43.525Z,31.97
2019-04-25T00:36:19.751Z,26.77
2019-04-25T00:36:55.831Z,27.27
2019-04-25T00:37:32.309Z,27.32
2019-04-25T00:38:08.465Z,32.50
2019-04-25T00:38:46.568Z,29.57
2019-04-25T00:39:22.519Z,23.87
2019-04-25T00:39:58.597Z,28.65
2019-04-25T00:40:35.026Z,36.80
2019-04-25T00:41:11.607Z,31.33
2019-04-25T00:41:47.793Z,34.67
2019-04-25T00:42:23.888Z,30.52
2019-04-25T00:43:01.529Z,31.68
2019-04-25T00:43:37.722Z,30.55
2019-04-25T00:44:13.825Z,28.40
2019-04-25T00:44:51.278Z,27.77
2019-04-25T00:45:27.613Z,32.25
2019-04-25T00:46:03.758Z,25.70
2019-04-25T00:46:39.803Z,26.45
2019-04-25T00:47:15.925Z,27.20
2019-04-25T00:47:52.897Z,27.48
2019-04-25T00:48:29.038Z,27.17
2019-04-25T00:49:05.061Z,31.42
2019-04-25T00:49:43.839Z,29.90
2019-04-25T00:50:19.710Z,27.48
2019-04-25T00:50:55.757Z,27.15
2019-04-25T00:51:31.874Z,33.73
2019-04-25T00:52:07.925Z,34.23
2019-04-25T00:52:44.866Z,32.58
2019-04-25T00:53:21.255Z,24.92
2019-04-25T00:53:57.315Z,33.73
2019-04-25T00:54:33.360Z,22.50
2019-04-25T00:55:09.668Z,25.62
2019-04-25T00:55:46.440Z,24.12
2019-04-25T00:56:22.527Z,27.13
2019-04-25T00:56:58.663Z,28.98
2019-04-25T00:57:35.241Z,25.15
2019-04-25T00:58:12.932Z,27.00
2019-04-25T00:59:02.672Z,28.02
2019-04-25T00:59:41.848Z,32.30
2019-04-25T01:00:35.721Z,30.52
2019-04-25T01:01:25.291Z,32.45
2019-04-25T01:02:11.878Z,32.73
2019-04-25T01:02:49.532Z,26.80
2019-04-25T01:03:33.002Z,31.73
2019-04-25T01:04:09.055Z,30.85
2019-04-25T01:04:45.245Z,29.23
2019-04-25T01:05:21.683Z,29.12
2019-04-25T01:05:57.720Z,30.90
2019-04-25T01:06:33.755Z,29.67
2019-04-25T01:07:09.795Z,26.87
2019-04-25T01:07:45.866Z,25.95
2019-04-25T01:08:22.050Z,26.33
2019-04-25T01:08:59.057Z,26.80
2019-04-25T01:09:35.262Z,31.70
2019-04-25T01:10:13.374Z,31.45
2019-04-25T01:10:50.524Z,28.60
2019-04-25T01:11:27.198Z,30.72
2019-04-25T01:12:04.113Z,29.05
2019-04-25T01:12:41.708Z,34.95
2019-04-25T01:13:17.823Z,29.85
2019-04-25T01:13:54.454Z,30.40
2019-04-25T01:14:31.933Z,30.02
2019-04-25T01:15:09.671Z,33.30
2019-04-25T01:15:46.403Z,28.15
2019-04-25T01:16:22.409Z,28.75
2019-04-25T01:16:58.524Z,25.77
2019-04-25T01:17:34.542Z,31.27
2019-04-25T01:18:12.209Z,35.63
2019-04-25T01:18:48.745Z,32.60
2019-04-25T01:19:24.868Z,31.17
2019-04-25T01:20:00.898Z,28.70
2019-04-25T01:20:37.016Z,28.52
2019-04-25T01:21:14.140Z,27.55
2019-04-25T01:21:51.290Z,29.00
2019-04-25T01:22:27.441Z,37.35
2019-04-25T01:23:03.811Z,33.42
2019-04-25T01:23:39.892Z,29.40
2019-04-25T01:24:15.980Z,29.95
2019-04-25T01:24:52.020Z,27.02
2019-04-25T01:25:38.545Z,27.13
2019-04-25T01:26:06.419Z,27.60
2019-04-25T01:26:43.856Z,25.75
2019-04-25T01:27:20.003Z,32.70
2019-04-25T01:27:56.027Z,27.10
2019-04-25T01:28:33.565Z,25.82
2019-04-25T01:29:10.482Z,34.43
2019-04-25T01:29:46.684Z,30.17
2019-04-25T01:30:24.361Z,26.27
2019-04-25T01:31:00.760Z,29.92
2019-04-25T01:31:36.779Z,29.27
2019-04-25T01:32:14.452Z,32.95
2019-04-25T01:32:50.546Z,35.75
2019-04-25T01:33:26.969Z,29.42
2019-04-25T01:34:04.660Z,31.90
2019-04-25T01:34:44.169Z,28.75
2019-04-25T01:35:27.605Z,33.98
2019-04-25T01:36:07.824Z,25.50
2019-04-25T01:36:51.235Z,27.05
2019-04-25T01:37:28.900Z,30.40
2019-04-25T01:38:09.496Z,28.70
2019-04-25T01:38:56.147Z,30.35
2019-04-25T01:39:48.946Z,31.17
2019-04-25T01:40:35.560Z,29.90
2019-04-25T01:41:31.308Z,29.42
2019-04-25T01:42:15.012Z,27.17
2019-04-25T01:43:04.732Z,27.62
2019-04-25T01:43:57.241Z,29.85
2019-04-25T01:45:10.475Z,27.10
2019-04-25T01:45:48.079Z,28.52
2019-04-25T01:46:25.589Z,27.35
2019-04-25T01:47:01.617Z,28.15
2019-04-25T01:47:37.643Z,27.90
2019-04-25T01:48:13.786Z,28.23
2019-04-25T01:48:50.170Z,30.37
2019-04-25T01:49:26.192Z,24.50
2019-04-25T01:50:03.788Z,29.32
2019-04-25T01:50:40.205Z,25.62
2019-04-25T01:51:16.272Z,30.72
2019-04-25T01:51:54.067Z,31.00
2019-04-25T01:52:30.052Z,26.33
2019-04-25T01:53:06.083Z,27.62
2019-04-25T01:53:42.126Z,26.80
2019-04-25T01:54:18.166Z,38.63
2019-04-25T01:54:55.663Z,27.50
2019-04-25T01:55:33.518Z,28.83
2019-04-25T01:56:09.618Z,30.27
2019-04-25T01:56:45.780Z,25.65
2019-04-25T01:57:21.813Z,33.88
2019-04-25T01:57:57.839Z,27.50
2019-04-25T01:58:33.940Z,34.95
2019-04-25T01:59:09.954Z,28.12
2019-04-25T01:59:46.157Z,32.80
2019-04-25T02:00:33.278Z,30.88
2019-04-25T02:01:09.547Z,34.38
2019-04-25T02:01:45.834Z,33.38
2019-04-25T02:02:23.665Z,30.12
2019-04-25T02:02:59.745Z,29.80
2019-04-25T02:03:35.864Z,36.17
2019-04-25T02:04:13.234Z,32.25
2019-04-25T02:04:49.355Z,32.13
2019-04-25T02:05:25.459Z,32.05
2019-04-25T02:06:01.745Z,30.72
2019-04-25T02:06:37.760Z,31.80
2019-04-25T02:07:13.871Z,33.10
2019-04-25T02:07:51.377Z,33.18
2019-04-25T02:08:27.556Z,38.50
2019-04-25T02:09:05.902Z,34.80
2019-04-25T02:09:43.660Z,29.77
2019-04-25T02:10:20.029Z,34.63
2019-04-25T02:10:58.141Z,43.35
2019-04-25T02:11:48.608Z,36.68
2019-04-25T02:12:27.325Z,41.02
2019-04-25T02:13:07.980Z,43.33
2019-04-25T02:14:19.638Z,41.92
2019-04-25T02:14:56.625Z,36.48
2019-04-25T02:15:33.498Z,39.53
2019-04-25T02:16:09.860Z,35.38
2019-04-25T02:16:45.966Z,41.13
2019-04-25T02:17:24.066Z,36.80
2019-04-25T02:18:00.456Z,34.23
2019-04-25T02:18:37.138Z,32.65
2019-04-25T02:19:14.499Z,35.78
2019-04-25T02:19:52.002Z,30.97
2019-04-25T02:20:28.173Z,35.50
2019-04-25T02:21:04.538Z,38.10
2019-04-25T02:21:40.584Z,40.28
2019-04-25T02:22:16.611Z,36.23
2019-04-25T02:22:54.472Z,40.88
2019-04-25T02:23:30.411Z,32.10
2019-04-25T02:24:06.515Z,33.75
2019-04-25T02:24:43.700Z,33.92
2019-04-25T02:25:19.753Z,30.62
2019-04-25T02:26:08.951Z,39.35
2019-04-25T02:26:34.077Z,34.23
2019-04-25T02:27:10.286Z,31.45
2019-04-25T02:27:46.308Z,36.77
2019-04-25T02:28:24.039Z,47.35
2019-04-25T02:29:00.576Z,49.00
2019-04-25T02:29:36.634Z,32.85
2019-04-25T02:30:15.527Z,38.98
2019-04-25T02:30:54.727Z,42.60
2019-04-25T02:31:29.473Z,40.03
2019-04-25T02:32:09.104Z,34.63
2019-04-25T02:32:44.278Z,39.65
2019-04-25T02:33:20.409Z,35.20
2019-04-25T02:33:58.804Z,41.48
2019-04-25T02:34:34.859Z,32.20
2019-04-25T02:35:11.261Z,35.98
2019-04-25T02:35:47.355Z,33.18
2019-04-25T02:36:24.683Z,43.10
2019-04-25T02:37:04.225Z,38.83
2019-04-25T02:37:38.570Z,37.40
2019-04-25T02:38:16.910Z,34.00
2019-04-25T02:38:54.159Z,29.95
2019-04-25T02:39:30.228Z,38.53
2019-04-25T02:40:08.450Z,40.83
2019-04-25T02:40:45.623Z,101.58
2019-04-25T02:41:21.803Z,42.13
2019-04-25T02:42:01.045Z,38.30
2019-04-25T02:42:36.905Z,37.98
2019-04-25T02:43:14.210Z,48.35
2019-04-25T02:43:50.482Z,48.20
2019-04-25T02:44:26.718Z,42.10
2019-04-25T02:45:08.226Z,35.65
2019-04-25T02:45:44.322Z,42.98
2019-04-25T02:46:37.416Z,41.00
2019-04-25T02:47:15.085Z,32.60
2019-04-25T02:48:08.721Z,35.70
2019-04-25T02:49:04.145Z,37.58
2019-04-25T02:49:41.577Z,38.50
2019-04-25T02:50:35.987Z,35.55
2019-04-25T02:51:16.584Z,42.03
2019-04-25T02:51:59.254Z,35.08
2019-04-25T02:52:38.997Z,39.55
2019-04-25T02:53:36.308Z,37.58
2019-04-25T02:54:09.481Z,37.90
2019-04-25T02:54:45.494Z,35.78
2019-04-25T02:55:31.125Z,36.65
2019-04-25T02:55:59.751Z,35.60
2019-04-25T02:56:38.871Z,37.33
2019-04-25T02:57:14.612Z,40.60
2019-04-25T02:57:50.794Z,36.58
2019-04-25T02:58:26.968Z,38.10
2019-04-25T02:59:06.501Z,38.63
2019-04-25T02:59:40.820Z,36.28
2019-04-25T03:00:20.140Z,35.73
2019-04-25T03:01:08.002Z,36.75
2019-04-25T03:01:36.273Z,38.48
2019-04-25T03:02:12.332Z,35.48
2019-04-25T03:02:48.363Z,32.40
2019-04-25T03:03:24.642Z,29.25
2019-04-25T03:04:00.992Z,33.10
2019-04-25T03:04:37.016Z,31.15
2019-04-25T03:05:14.295Z,32.50
2019-04-25T03:05:50.580Z,33.08
2019-04-25T03:06:26.630Z,38.38
2019-04-25T03:07:07.408Z,39.33
2019-04-25T03:07:40.592Z,39.88
2019-04-25T03:08:16.710Z,35.98
2019-04-25T03:08:54.277Z,37.35
2019-04-25T03:09:30.546Z,31.33
2019-04-25T03:10:09.811Z,37.35
2019-04-25T03:10:46.091Z,38.78
2019-04-25T03:11:24.306Z,35.60
2019-04-25T03:11:59.989Z,35.92
2019-04-25T03:12:36.845Z,30.17
2019-04-25T03:13:14.854Z,33.88
2019-04-25T03:13:50.849Z,30.97
2019-04-25T03:14:26.895Z,31.33
2019-04-25T03:15:06.354Z,32.80
2019-04-25T03:15:40.805Z,33.65
2019-04-25T03:16:16.817Z,35.00
2019-04-25T03:16:54.317Z,39.70
2019-04-25T03:17:30.572Z,35.15
2019-04-25T03:18:11.166Z,42.45
2019-04-25T03:18:47.155Z,34.23
2019-04-25T03:19:34.189Z,36.00
2019-04-25T03:20:14.848Z,31.57
2019-04-25T03:20:54.714Z,36.83
2019-04-25T03:21:32.036Z,35.43
2019-04-25T03:22:11.730Z,34.33
2019-04-25T03:22:47.529Z,28.90
2019-04-25T03:23:35.456Z,35.60
2019-04-25T03:24:16.373Z,34.65
2019-04-25T03:24:50.256Z,37.05
2019-04-25T03:25:26.289Z,39.27
2019-04-25T03:26:04.543Z,33.08
2019-04-25T03:26:40.803Z,30.17
2019-04-25T03:27:16.968Z,31.93
2019-04-25T03:27:54.113Z,27.80
2019-04-25T03:28:30.803Z,33.67
2019-04-25T03:29:07.294Z,31.48
2019-04-25T03:29:45.502Z,33.70
2019-04-25T03:30:22.057Z,31.30
2019-04-25T03:31:01.395Z,30.90
2019-04-25T03:31:36.003Z,33.60
2019-04-25T03:32:16.459Z,37.88
2019-04-25T03:32:51.622Z,31.55
2019-04-25T03:33:27.565Z,28.67
2019-04-25T03:34:07.939Z,32.75
2019-04-25T03:34:41.342Z,31.73
2019-04-25T03:35:17.360Z,35.05
2019-04-25T03:35:54.780Z,31.60
2019-04-25T03:36:30.820Z,40.35
2019-04-25T03:37:07.665Z,35.45
2019-04-25T03:37:43.765Z,37.48
2019-04-25T03:38:19.767Z,29.52
2019-04-25T03:38:55.900Z,30.92
2019-04-25T03:39:33.501Z,31.97
2019-04-25T03:40:09.729Z,35.90
2019-04-25T03:40:45.745Z,29.25
2019-04-25T03:41:21.781Z,36.90
2019-04-25T03:41:58.798Z,33.33
2019-04-25T03:42:34.817Z,28.25
2019-04-25T03:43:10.822Z,35.33
2019-04-25T03:43:46.848Z,34.73
2019-04-25T03:44:23.713Z,31.48
2019-04-25T03:45:01.467Z,29.05
2019-04-25T03:45:37.638Z,36.50
2019-04-25T03:46:14.239Z,39.40
2019-04-25T03:46:50.392Z,30.75
2019-04-25T03:47:26.437Z,29.72
2019-04-25T03:48:03.874Z,32.75
2019-04-25T03:48:40.210Z,34.73
2019-04-25T03:49:16.236Z,30.25
2019-04-25T03:49:53.499Z,36.00
2019-04-25T03:50:30.872Z,33.18
2019-04-25T03:51:07.903Z,36.38
2019-04-25T03:51:44.128Z,35.17
2019-04-25T03:52:20.149Z,39.90
2019-04-25T03:52:56.188Z,36.25
2019-04-25T03:53:33.704Z,39.75
2019-04-25T03:54:10.599Z,36.45
2019-04-25T03:54:46.639Z,31.60
2019-04-25T03:55:24.078Z,30.20
2019-04-25T03:56:00.247Z,34.45
2019-04-25T03:56:36.274Z,34.60
2019-04-25T03:57:14.333Z,30.92
2019-04-25T03:57:51.309Z,32.90
2019-04-25T03:58:27.325Z,32.00
2019-04-25T03:59:05.859Z,37.90
2019-04-25T03:59:43.557Z,33.38
2019-04-25T04:00:19.806Z,40.58
2019-04-25T04:00:55.979Z,31.12
2019-04-25T04:01:32.005Z,36.20
2019-04-25T04:02:09.056Z,40.05
2019-04-25T04:02:45.148Z,35.88
2019-04-25T04:03:21.200Z,35.20
2019-04-25T04:03:57.245Z,31.68
2019-04-25T04:04:33.591Z,33.42
2019-04-25T04:05:09.676Z,30.97
2019-04-25T04:05:45.691Z,38.48
2019-04-25T04:06:21.801Z,48.35
2019-04-25T04:06:57.839Z,32.95
2019-04-25T04:07:33.873Z,29.72
2019-04-25T04:08:11.918Z,41.45
2019-04-25T04:08:47.955Z,37.17
2019-04-25T04:09:24.227Z,34.20
2019-04-25T04:10:00.325Z,33.85
2019-04-25T04:10:36.365Z,36.63
2019-04-25T04:11:14.146Z,39.85
2019-04-25T04:11:50.225Z,33.73
2019-04-25T04:12:26.259Z,35.95
2019-04-25T04:13:02.287Z,32.88
2019-04-25T04:13:38.321Z,36.20
2019-04-25T04:14:15.639Z,34.45
2019-04-25T04:14:53.630Z,41.50
2019-04-25T04:15:29.781Z,31.02
2019-04-25T04:16:06.524Z,33.60
2019-04-25T04:16:44.412Z,32.70
2019-04-25T04:17:40.466Z,40.45
2019-04-25T04:18:36.032Z,36.50
2019-04-25T04:19:13.121Z,30.23
2019-04-25T04:19:54.228Z,35.23
2019-04-25T04:20:40.664Z,32.38
2019-04-25T04:21:21.358Z,33.65
2019-04-25T04:22:53.331Z,30.97
2019-04-25T04:23:34.041Z,38.88
2019-04-25T04:24:14.985Z,32.40
2019-04-25T04:24:53.866Z,34.45
2019-04-25T04:25:29.972Z,33.15
2019-04-25T04:26:06.256Z,38.10
2019-04-25T04:26:43.121Z,32.28
2019-04-25T04:27:19.235Z,31.62
2019-04-25T04:27:55.333Z,37.40
2019-04-25T04:28:33.719Z,36.85
2019-04-25T04:29:10.107Z,35.63
2019-04-25T04:29:46.219Z,30.25
2019-04-25T04:30:22.219Z,34.55
2019-04-25T04:30:58.296Z,35.40
2019-04-25T04:31:34.341Z,41.18
2019-04-25T04:32:10.633Z,37.15
2019-04-25T04:32:46.688Z,38.98
2019-04-25T04:33:30.246Z,36.90
2019-04-25T04:34:00.502Z,36.77
2019-04-25T04:34:36.548Z,34.60
2019-04-25T04:35:14.761Z,38.38
2019-04-25T04:35:51.248Z,38.23
2019-04-25T04:36:27.283Z,30.62
2019-04-25T04:37:03.771Z,34.08
2019-04-25T04:37:39.876Z,40.98
2019-04-25T04:38:16.469Z,33.00
2019-04-25T04:38:54.205Z,34.70
2019-04-25T04:39:30.370Z,32.05
2019-04-25T04:40:07.932Z,29.77
2019-04-25T04:40:44.266Z,34.85
2019-04-25T04:41:20.287Z,30.08
2019-04-25T04:41:56.477Z,33.13
2019-04-25T04:42:33.709Z,34.40
2019-04-25T04:43:09.739Z,41.58
2019-04-25T04:43:45.797Z,53.55
2019-04-25T04:44:21.899Z,70.87
2019-04-25T04:44:57.927Z,48.28
2019-04-25T04:45:34.519Z,39.25
2019-04-25T04:46:10.602Z,36.65
2019-04-25T04:46:48.250Z,34.80
2019-04-25T04:47:24.282Z,32.67
2019-04-25T04:48:00.367Z,30.90
2019-04-25T04:48:36.395Z,31.33
2019-04-25T04:49:14.178Z,35.10
2019-04-25T04:49:50.206Z,33.98
2019-04-25T04:50:26.255Z,30.37
2019-04-25T04:51:03.402Z,27.82
2019-04-25T04:51:39.499Z,33.13
2019-04-25T04:52:15.866Z,41.77
2019-04-25T04:52:53.996Z,32.05
2019-04-25T04:53:30.182Z,36.80
2019-04-25T04:54:07.167Z,31.90
2019-04-25T04:54:43.931Z,37.90
2019-04-25T04:55:20.073Z,30.48
2019-04-25T04:55:56.168Z,32.70
2019-04-25T04:56:34.040Z,35.58
2019-04-25T04:57:25.717Z,38.08
2019-04-25T04:57:47.666Z,32.80
2019-04-25T04:58:25.122Z,31.27
2019-04-25T04:59:01.207Z,35.23
2019-04-25T04:59:37.239Z,40.45
2019-04-25T05:00:14.558Z,33.48
2019-04-25T05:00:51.118Z,41.95
2019-04-25T05:01:28.951Z,39.60
2019-04-25T05:02:14.628Z,31.80
2019-04-25T05:03:00.552Z,41.53
2019-04-25T05:03:38.210Z,41.15
2019-04-25T05:04:16.268Z,37.65
2019-04-25T05:05:06.593Z,40.25
2019-04-25T05:06:00.399Z,35.30
2019-04-25T05:06:41.014Z,32.40
2019-04-25T05:07:25.334Z,38.58
2019-04-25T05:08:09.006Z,38.28
2019-04-25T05:08:46.710Z,35.58
2019-04-25T05:09:24.354Z,32.28
2019-04-25T05:10:00.389Z,41.05
2019-04-25T05:10:36.443Z,33.80
2019-04-25T05:11:15.226Z,38.80
2019-04-25T05:11:50.251Z,31.07
2019-04-25T05:12:26.264Z,39.85
2019-04-25T05:13:02.314Z,33.80
2019-04-25T05:13:38.325Z,34.08
2019-04-25T05:14:15.351Z,30.12
2019-04-25T05:14:53.291Z,33.95
2019-04-25T05:15:29.689Z,31.00
2019-04-25T05:16:05.730Z,33.38
2019-04-25T05:16:43.236Z,36.25
2019-04-25T05:17:19.699Z,34.38
2019-04-25T05:17:55.753Z,35.28
2019-04-25T05:18:37.085Z,33.02
2019-04-25T05:19:09.489Z,32.75
2019-04-25T05:19:45.513Z,69.62
2019-04-25T05:20:22.204Z,75.52
2019-04-25T05:20:58.269Z,33.48
2019-04-25T05:21:34.300Z,37.30
2019-04-25T05:22:10.353Z,46.28
2019-04-25T05:22:46.372Z,37.90
2019-04-25T05:23:23.439Z,41.65
2019-04-25T05:24:01.124Z,42.17
2019-04-25T05:24:37.171Z,51.75
2019-04-25T05:25:15.291Z,59.08
2019-04-25T05:25:50.934Z,38.95
2019-04-25T05:26:27.047Z,33.30
2019-04-25T05:27:03.864Z,40.75
2019-04-25T05:27:56.778Z,43.30
2019-04-25T05:28:18.515Z,43.95
2019-04-25T05:28:55.296Z,41.80
2019-04-25T05:29:31.490Z,38.33
2019-04-25T05:30:09.614Z,37.00
2019-04-25T05:30:47.323Z,39.98
2019-04-25T05:31:27.462Z,26.90
2019-04-25T05:32:04.253Z,34.88
2019-04-25T05:32:40.462Z,34.67
2019-04-25T05:33:19.101Z,34.83
2019-04-25T05:33:54.250Z,36.73
2019-04-25T05:34:30.287Z,33.50
2019-04-25T05:35:06.791Z,33.28
2019-04-25T05:35:44.057Z,39.18
2019-04-25T05:36:21.823Z,31.35
2019-04-25T05:36:57.918Z,33.85
2019-04-25T05:37:33.969Z,31.57
2019-04-25T05:38:10.035Z,34.60
2019-04-25T05:38:46.061Z,39.42
2019-04-25T05:39:23.729Z,40.58
2019-04-25T05:39:59.829Z,29.10
2019-04-25T05:40:37.512Z,32.70
2019-04-25T05:41:18.215Z,36.03
2019-04-25T05:41:58.566Z,35.95
2019-04-25T05:42:51.317Z,32.48
2019-04-25T05:43:28.935Z,34.92
2019-04-25T05:44:05.249Z,35.75
2019-04-25T05:44:41.261Z,27.48
2019-04-25T05:45:19.843Z,27.90
2019-04-25T05:45:55.973Z,27.82
2019-04-25T05:46:32.012Z,34.85
2019-04-25T05:47:08.032Z,32.05
2019-04-25T05:47:44.336Z,32.15
2019-04-25T05:48:21.089Z,32.63
2019-04-25T05:48:57.276Z,31.42
2019-04-25T05:49:34.272Z,39.15
2019-04-25T05:50:10.377Z,30.02
2019-04-25T05:50:46.390Z,32.00
2019-04-25T05:51:23.953Z,33.25
2019-04-25T05:52:00.186Z,34.95
2019-04-25T05:52:36.341Z,33.45
2019-04-25T05:53:14.098Z,64.42
2019-04-25T05:53:51.175Z,48.68
2019-04-25T05:54:27.254Z,38.63
2019-04-25T05:55:03.981Z,42.13
2019-04-25T05:55:40.083Z,39.98
2019-04-25T05:56:16.516Z,52.62
2019-04-25T05:56:53.761Z,68.10
2019-04-25T05:57:29.847Z,44.77
2019-04-25T05:58:05.868Z,60.83
2019-04-25T05:58:43.862Z,50.60
2019-04-25T05:59:19.619Z,48.02
2019-04-25T05:59:55.716Z,41.63
2019-04-25T06:00:31.748Z,44.20
2019-04-25T06:01:07.806Z,61.33
2019-04-25T06:01:43.836Z,42.35
2019-04-25T06:02:19.858Z,43.73
2019-04-25T06:02:55.978Z,47.85
2019-04-25T06:03:33.822Z,42.33
2019-04-25T06:04:09.734Z,55.25
2019-04-25T06:04:45.769Z,37.65
2019-04-25T06:05:23.429Z,37.17
2019-04-25T06:05:59.608Z,41.40
2019-04-25T06:06:36.812Z,36.03
2019-04-25T06:07:14.479Z,38.13
2019-04-25T06:07:50.602Z,37.23
2019-04-25T06:08:28.273Z,39.90
2019-04-25T06:09:24.067Z,44.20
2019-04-25T06:10:18.104Z,29.23
2019-04-25T06:10:58.819Z,44.25
2019-04-25T06:12:28.407Z,35.48
2019-04-25T06:13:18.152Z,34.75
2019-04-25T06:14:05.608Z,37.38
2019-04-25T06:14:43.299Z,54.55
2019-04-25T06:15:21.680Z,41.48
2019-04-25T06:16:00.022Z,54.25
2019-04-25T06:16:37.483Z,53.58
2019-04-25T06:17:32.131Z,49.77
2019-04-25T06:18:16.215Z,59.05
2019-04-25T06:19:11.297Z,66.57
2019-04-25T06:19:43.436Z,74.75
2019-04-25T06:20:21.526Z,71.07
2019-04-25T06:20:57.914Z,61.77
2019-04-25T06:21:33.961Z,72.03
2019-04-25T06:22:18.439Z,64.22
2019-04-25T06:22:59.779Z,74.50
2019-04-25T06:23:54.416Z,68.00
2019-04-25T06:24:33.895Z,71.12
2019-04-25T06:25:13.768Z,68.25
2019-04-25T06:25:49.401Z,55.43
2019-04-25T06:26:34.127Z,66.90
2019-04-25T06:27:16.891Z,67.03
2019-04-25T06:27:59.220Z,78.37
2019-04-25T06:28:35.403Z,81.87
2019-04-25T06:29:11.422Z,75.80
2019-04-25T06:29:58.094Z,77.65
2019-04-25T06:30:28.366Z,87.88
2019-04-25T06:31:09.920Z,77.97
2019-04-25T06:31:43.803Z,86.47
2019-04-25T06:32:21.385Z,105.87
2019-04-25T06:32:57.491Z,98.52
2019-04-25T06:33:33.958Z,113.55
2019-04-25T06:34:10.116Z,97.05
2019-04-25T06:34:46.192Z,86.22
2019-04-25T06:35:24.489Z,94.67
2019-04-25T06:36:00.021Z,90.77
2019-04-25T06:36:36.060Z,89.20
2019-04-25T06:37:13.763Z,94.22
2019-04-25T06:37:49.893Z,80.12
2019-04-25T06:38:27.244Z,99.10
2019-04-25T06:39:04.164Z,90.45
2019-04-25T06:39:41.776Z,84.15
2019-04-25T06:40:17.890Z,80.60
2019-04-25T06:40:53.915Z,97.67
2019-04-25T06:41:29.926Z,93.00
2019-04-25T06:42:05.947Z,86.97
2019-04-25T06:42:43.422Z,89.37
2019-04-25T06:43:19.649Z,87.42
2019-04-25T06:43:57.301Z,92.82
2019-04-25T06:44:50.893Z,94.72
2019-04-25T06:45:28.916Z,71.00
2019-04-25T06:46:15.308Z,60.17
2019-04-25T06:46:53.529Z,50.08
2019-04-25T06:47:36.986Z,53.78
2019-04-25T06:48:25.014Z,53.42
2019-04-25T06:49:03.531Z,50.92
2019-04-25T06:49:41.290Z,61.55
2019-04-25T06:50:17.356Z,56.77
2019-04-25T06:50:53.786Z,59.88
2019-04-25T06:51:49.516Z,64.22
2019-04-25T06:52:29.475Z,70.15
2019-04-25T06:53:03.505Z,47.88
2019-04-25T06:53:41.278Z,32.93
2019-04-25T06:54:17.321Z,31.75
2019-04-25T06:54:53.367Z,32.80
2019-04-25T06:55:30.183Z,33.90
2019-04-25T06:56:06.426Z,38.95
2019-04-25T06:56:43.470Z,36.65
2019-04-25T06:57:19.645Z,41.73
2019-04-25T06:57:55.872Z,32.17
2019-04-25T06:58:32.234Z,34.27
2019-04-25T06:59:09.931Z,38.13
2019-04-25T06:59:45.961Z,31.75
2019-04-25T07:00:24.261Z,35.55
2019-04-25T07:01:01.059Z,40.30
2019-04-25T07:01:38.313Z,36.63
2019-04-25T07:02:14.767Z,31.33
2019-04-25T07:02:50.816Z,29.35
2019-04-25T07:03:27.131Z,34.80
2019-04-25T07:04:04.061Z,31.73
2019-04-25T07:04:41.196Z,32.60
2019-04-25T07:05:26.616Z,34.70
2019-04-25T07:05:55.291Z,33.42
2019-04-25T07:06:31.416Z,31.80
2019-04-25T07:07:12.382Z,36.83
2019-04-25T07:07:45.481Z,33.40
2019-04-25T07:08:25.428Z,42.10
2019-04-25T07:09:00.336Z,30.12
2019-04-25T07:09:36.685Z,28.38
2019-04-25T07:10:13.352Z,33.55
2019-04-25T07:10:49.484Z,33.75
2019-04-25T07:11:26.787Z,35.73
2019-04-25T07:12:03.555Z,33.60
2019-04-25T07:12:39.798Z,31.12
2019-04-25T07:13:15.832Z,43.70
2019-04-25T07:13:53.590Z,28.55
2019-04-25T07:14:29.764Z,28.52
2019-04-25T07:15:09.818Z,35.13
2019-04-25T07:15:45.987Z,35.23
2019-04-25T07:16:24.054Z,31.90
2019-04-25T07:16:59.720Z,32.80
2019-04-25T07:17:36.041Z,33.30
2019-04-25T07:18:13.958Z,28.92
2019-04-25T07:18:50.073Z,35.00
2019-04-25T07:19:27.091Z,30.68
2019-04-25T07:20:05.677Z,32.83
2019-04-25T07:20:43.211Z,26.68
2019-04-25T07:21:20.359Z,30.60
2019-04-25T07:21:56.482Z,29.35
2019-04-25T07:22:34.774Z,33.58
2019-04-25T07:23:10.310Z,34.92
2019-04-25T07:23:46.458Z,32.78
2019-04-25T07:24:23.763Z,27.02
2019-04-25T07:25:00.312Z,29.27
2019-04-25T07:25:38.044Z,32.98
2019-04-25T07:26:16.055Z,31.42
2019-04-25T07:27:10.127Z,30.40
2019-04-25T07:27:50.771Z,33.85
2019-04-25T07:29:14.927Z,32.60
2019-04-25T07:29:53.872Z,34.13
2019-04-25T07:30:49.914Z,41.20
2019-04-25T07:31:28.937Z,30.55
2019-04-25T07:32:24.343Z,26.52
2019-04-25T07:33:03.761Z,26.45
2019-04-25T07:33:44.630Z,37.67
2019-04-25T07:35:03.482Z,32.25
2019-04-25T07:35:40.733Z,34.63
2019-04-25T07:36:16.833Z,33.25
2019-04-25T07:36:53.472Z,32.38
2019-04-25T07:37:29.819Z,36.68
2019-04-25T07:38:05.963Z,34.48
2019-04-25T07:38:43.493Z,30.97
2019-04-25T07:39:20.641Z,29.80
2019-04-25T07:39:56.688Z,33.45
2019-04-25T07:40:34.036Z,31.37
2019-04-25T07:41:10.511Z,31.23
2019-04-25T07:41:46.628Z,27.60
2019-04-25T07:42:23.918Z,35.90
2019-04-25T07:43:00.192Z,31.07
2019-04-25T07:43:36.341Z,30.85
2019-04-25T07:44:12.480Z,33.75
2019-04-25T07:44:52.626Z,32.30
2019-04-25T07:45:27.022Z,32.65
2019-04-25T07:46:03.479Z,31.12
2019-04-25T07:46:40.138Z,30.48
2019-04-25T07:47:16.324Z,34.23
2019-04-25T07:47:54.048Z,30.08
2019-04-25T07:48:30.246Z,30.10
2019-04-25T07:49:06.274Z,36.90
2019-04-25T07:49:43.286Z,34.60
2019-04-25T07:50:19.369Z,31.65
2019-04-25T07:50:55.394Z,35.50
2019-04-25T07:51:32.880Z,31.10
2019-04-25T07:52:11.474Z,28.15
2019-04-25T07:52:46.997Z,27.90
2019-04-25T07:53:24.316Z,29.25
2019-04-25T07:54:00.921Z,35.78
2019-04-25T07:54:36.974Z,29.82
2019-04-25T07:55:13.742Z,26.20
2019-04-25T07:55:49.887Z,30.02
2019-04-25T07:56:25.976Z,30.02
2019-04-25T07:57:03.492Z,31.65
2019-04-25T07:57:39.785Z,35.95
2019-04-25T07:58:15.857Z,37.73
2019-04-25T07:58:53.187Z,33.98
2019-04-25T07:59:29.697Z,41.30
2019-04-25T08:00:13.754Z,36.33
2019-04-25T08:00:50.249Z,32.67
2019-04-25T08:01:26.881Z,32.42
2019-04-25T08:02:04.022Z,35.15
2019-04-25T08:02:40.048Z,30.00
2019-04-25T08:03:16.067Z,28.27
2019-04-25T08:03:53.644Z,44.65
2019-04-25T08:04:29.827Z,26.73
2019-04-25T08:05:08.181Z,33.58
2019-04-25T08:05:44.218Z,33.40
2019-04-25T08:06:22.120Z,35.52
2019-04-25T08:06:58.197Z,35.92
2019-04-25T08:07:37.838Z,27.13
2019-04-25T08:08:13.946Z,33.45
2019-04-25T08:08:50.043Z,30.60
2019-04-25T08:09:26.092Z,30.45
2019-04-25T08:10:02.171Z,38.63
2019-04-25T08:10:56.789Z,40.03
2019-04-25T08:11:34.131Z,32.05
2019-04-25T08:12:10.570Z,34.50
2019-04-25T08:12:47.453Z,30.68